Time;durP1;ratioP1;P1;durP2;ratioP2;P2;SDS_P1;SDS_P2;PMS_P1;PMS_P2;Temp;Humidity;BMP_temperature;BMP_pressure;BME280_temperature;BME280_humidity;BME280_pressure;Samples;Min_cycle;Max_cycle;Signal;HPM_P1;HPM_P2
2021/01/08 00:00:24;;;;;;;12.70;7.65;;;4.00;99.90;;;;;;5077515;28;20736;-81
2021/01/08 00:02:51;;;;;;;11.45;7.32;;;3.80;99.90;;;;;;5077888;28;20850;-84
2021/01/08 00:05:18;;;;;;;10.93;6.97;;;3.90;99.90;;;;;;5077380;28;20193;-82
2021/01/08 00:07:44;;;;;;;13.68;8.40;;;3.70;99.90;;;;;;5078378;28;20208;-83
2021/01/08 00:10:11;;;;;;;13.10;7.20;;;3.60;99.90;;;;;;5078249;28;20226;-81
2021/01/08 00:12:38;;;;;;;11.70;7.90;;;3.70;99.90;;;;;;5084015;28;20199;-82
2021/01/08 00:15:07;;;;;;;11.50;7.25;;;3.60;99.90;;;;;;5077378;28;20275;-83
2021/01/08 00:17:34;;;;;;;12.07;7.38;;;3.60;99.90;;;;;;5076435;28;20232;-84
2021/01/08 00:20:01;;;;;;;12.95;8.40;;;3.70;99.90;;;;;;5076657;28;20582;-83
2021/01/08 00:22:28;;;;;;;12.65;8.13;;;3.70;99.90;;;;;;5076964;28;20213;-84
2021/01/08 00:24:55;;;;;;;12.18;7.50;;;3.50;99.90;;;;;;5078499;28;20212;-81
2021/01/08 00:27:22;;;;;;;12.30;7.78;;;3.90;99.90;;;;;;5079848;28;20263;-80
2021/01/08 00:29:49;;;;;;;10.02;6.30;;;3.70;99.90;;;;;;5090743;28;20215;-82
2021/01/08 00:32:17;;;;;;;14.77;8.77;;;3.60;99.90;;;;;;5083024;28;20217;-82
2021/01/08 00:34:43;;;;;;;12.98;8.13;;;3.80;99.90;;;;;;5089882;28;20241;-82
2021/01/08 00:37:10;;;;;;;14.10;7.63;;;3.90;99.90;;;;;;5063697;28;20234;-84
2021/01/08 00:39:39;;;;;;;12.10;8.30;;;4.00;99.90;;;;;;5075316;28;20252;-84
2021/01/08 00:42:06;;;;;;;13.43;8.25;;;3.70;99.90;;;;;;5076937;28;20283;-81
2021/01/08 00:44:33;;;;;;;14.52;7.60;;;3.70;99.90;;;;;;5093211;28;20204;-81
2021/01/08 00:46:59;;;;;;;13.85;8.30;;;3.90;99.90;;;;;;5084233;28;20246;-83
2021/01/08 00:49:27;;;;;;;14.10;7.53;;;3.60;99.90;;;;;;5077327;28;20206;-82
2021/01/08 00:51:54;;;;;;;11.93;7.60;;;3.70;99.90;;;;;;5077475;28;20657;-81
2021/01/08 00:54:20;;;;;;;14.68;8.48;;;3.90;99.90;;;;;;5077216;28;20198;-82
2021/01/08 00:56:47;;;;;;;13.18;8.20;;;3.70;99.90;;;;;;5078950;28;20218;-84
2021/01/08 00:59:14;;;;;;;11.68;7.60;;;3.80;99.90;;;;;;5076675;28;20224;-83
2021/01/08 01:01:40;;;;;;;11.77;7.40;;;3.90;99.90;;;;;;5078319;28;20283;-82
2021/01/08 01:04:07;;;;;;;12.38;7.68;;;4.00;99.90;;;;;;5081799;28;20198;-82
2021/01/08 01:06:34;;;;;;;9.88;6.72;;;3.70;99.90;;;;;;5080520;28;20213;-84
2021/01/08 01:09:03;;;;;;;11.10;6.70;;;3.80;99.90;;;;;;5070891;28;20202;-84
2021/01/08 01:11:30;;;;;;;11.05;6.72;;;3.70;99.90;;;;;;5071401;28;20225;-83
2021/01/08 01:13:58;;;;;;;12.05;6.90;;;3.60;99.90;;;;;;5071780;28;20206;-83
2021/01/08 01:16:26;;;;;;;10.77;6.72;;;3.80;99.90;;;;;;5071695;28;20214;-83
2021/01/08 01:18:54;;;;;;;10.00;5.82;;;3.70;99.90;;;;;;5070093;28;20214;-83
2021/01/08 01:21:21;;;;;;;12.25;6.43;;;3.90;99.90;;;;;;5071480;28;20242;-83
2021/01/08 01:23:48;;;;;;;9.85;6.00;;;3.70;99.90;;;;;;5070572;28;20224;-83
2021/01/08 01:26:15;;;;;;;8.85;5.50;;;3.90;99.90;;;;;;5071966;28;20694;-83
2021/01/08 01:28:42;;;;;;;11.32;6.35;;;3.80;99.90;;;;;;5071879;28;20563;-81
2021/01/08 01:31:09;;;;;;;9.95;5.63;;;3.90;99.90;;;;;;5078157;28;20221;-83
2021/01/08 01:33:36;;;;;;;9.38;5.85;;;4.00;99.90;;;;;;5078030;28;20214;-81
2021/01/08 01:36:05;;;;;;;10.82;5.88;;;3.90;99.90;;;;;;5076410;28;20245;-82
2021/01/08 01:38:32;;;;;;;11.85;6.18;;;3.60;99.90;;;;;;5077092;28;20215;-80
2021/01/08 01:41:00;;;;;;;10.52;5.28;;;3.60;99.90;;;;;;5081118;28;20232;-81
2021/01/08 01:43:27;;;;;;;10.90;6.65;;;3.70;99.90;;;;;;5082816;28;20210;-81
2021/01/08 01:45:53;;;;;;;12.35;7.35;;;3.60;99.90;;;;;;5081248;28;20199;-82
2021/01/08 01:48:20;;;;;;;10.18;5.45;;;3.60;99.90;;;;;;5081747;28;20201;-80
2021/01/08 01:50:48;;;;;;;10.23;5.45;;;3.30;99.90;;;;;;5075320;28;20247;-82
2021/01/08 01:53:15;;;;;;;10.90;6.68;;;3.20;99.90;;;;;;5075214;28;20210;-82
2021/01/08 01:55:41;;;;;;;11.85;6.50;;;3.20;99.90;;;;;;5074726;28;20228;-82
2021/01/08 01:58:09;;;;;;;9.57;6.25;;;3.40;99.90;;;;;;5074042;28;20217;-81
2021/01/08 02:00:35;;;;;;;10.43;5.82;;;3.30;99.90;;;;;;5075135;28;20229;-84
2021/01/08 02:03:09;;;;;;;8.63;5.45;;;3.20;99.90;;;;;;5075939;28;20213;-82
2021/01/08 02:05:36;;;;;;;12.00;6.82;;;3.20;99.90;;;;;;5076289;28;20278;-80
2021/01/08 02:08:06;;;;;;;9.38;5.25;;;3.20;99.90;;;;;;5079627;28;20350;-81
2021/01/08 02:10:38;;;;;;;9.90;6.00;;;3.20;99.90;;;;;;5073958;28;20280;-82
2021/01/08 02:13:07;;;;;;;10.20;6.07;;;3.00;99.90;;;;;;5074670;28;20206;-83
2021/01/08 02:15:35;;;;;;;12.55;5.97;;;3.20;99.90;;;;;;5076753;28;20303;-80
2021/01/08 02:18:03;;;;;;;9.60;6.05;;;3.10;99.90;;;;;;5073508;28;20296;-81
2021/01/08 02:20:32;;;;;;;10.57;6.35;;;3.20;99.90;;;;;;5073610;28;20218;-82
2021/01/08 02:23:07;;;;;;;10.88;6.22;;;3.30;99.90;;;;;;5072885;28;20202;-81
2021/01/08 02:25:35;;;;;;;11.13;5.97;;;3.50;99.90;;;;;;5072139;28;20255;-81
2021/01/08 02:28:19;;;;;;;9.82;5.85;;;3.30;99.90;;;;;;5072712;28;20219;-81
2021/01/08 02:30:47;;;;;;;11.15;5.72;;;3.50;99.90;;;;;;5073997;28;20236;-82
2021/01/08 02:33:15;;;;;;;10.95;5.85;;;3.60;99.90;;;;;;5072818;28;20557;-81
2021/01/08 02:35:43;;;;;;;9.55;5.93;;;3.50;99.90;;;;;;5073564;28;20237;-80
2021/01/08 02:38:12;;;;;;;8.15;5.18;;;3.30;99.90;;;;;;5070631;28;20257;-79
2021/01/08 02:40:40;;;;;;;11.63;6.47;;;3.60;99.90;;;;;;5052973;28;20250;-81
2021/01/08 02:43:07;;;;;;;11.15;6.50;;;3.20;99.90;;;;;;5073027;28;20198;-82
2021/01/08 02:45:34;;;;;;;8.63;4.90;;;3.60;99.90;;;;;;5076309;28;20209;-81
2021/01/08 02:48:01;;;;;;;9.95;6.20;;;3.50;99.90;;;;;;5075497;28;20221;-81
2021/01/08 02:50:28;;;;;;;11.45;5.65;;;3.60;99.90;;;;;;5074637;28;20233;-83
2021/01/08 02:52:59;;;;;;;8.10;4.97;;;3.60;99.90;;;;;;5075908;28;20303;-81
2021/01/08 02:55:30;;;;;;;8.82;5.63;;;3.80;99.90;;;;;;5076965;28;20231;-80
2021/01/08 02:57:59;;;;;;;10.95;5.43;;;3.90;99.90;;;;;;5081776;28;20202;-81
2021/01/08 03:00:28;;;;;;;12.10;6.00;;;3.60;99.90;;;;;;5082819;28;20668;-79
2021/01/08 03:02:56;;;;;;;9.80;5.80;;;3.50;99.90;;;;;;5081190;28;20251;-80
2021/01/08 03:05:24;;;;;;;10.23;5.60;;;3.50;99.90;;;;;;5082265;28;20256;-82
2021/01/08 03:07:50;;;;;;;9.48;5.82;;;3.60;99.90;;;;;;5076489;28;20209;-81
2021/01/08 03:10:18;;;;;;;9.43;5.95;;;3.50;99.90;;;;;;5073266;28;20762;-81
2021/01/08 03:12:54;;;;;;;9.55;5.72;;;3.30;99.90;;;;;;5074645;28;20198;-81
2021/01/08 03:15:21;;;;;;;11.80;5.80;;;3.50;99.90;;;;;;5074082;28;20246;-82
2021/01/08 03:17:48;;;;;;;9.15;5.68;;;3.40;99.90;;;;;;5079825;28;20206;-80
2021/01/08 03:20:14;;;;;;;10.68;5.90;;;3.40;99.90;;;;;;5084997;28;20335;-82
2021/01/08 03:22:41;;;;;;;10.05;5.68;;;3.20;99.90;;;;;;5088037;28;20198;-81
2021/01/08 03:25:09;;;;;;;10.13;5.90;;;3.40;99.90;;;;;;5081834;28;20601;-81
2021/01/08 03:27:35;;;;;;;13.38;8.02;;;3.20;99.90;;;;;;5066820;28;20209;-80
2021/01/08 03:30:02;;;;;;;11.23;6.47;;;3.30;99.90;;;;;;5068092;28;20240;-79
2021/01/08 03:32:30;;;;;;;13.07;7.20;;;3.50;99.90;;;;;;5068792;28;20213;-82
2021/01/08 03:34:56;;;;;;;11.55;7.43;;;3.40;99.90;;;;;;5079507;28;20205;-83
2021/01/08 03:37:23;;;;;;;9.95;6.72;;;3.40;99.90;;;;;;5078880;28;20289;-82
2021/01/08 03:39:50;;;;;;;11.98;6.90;;;3.30;99.90;;;;;;5078788;28;20746;-83
2021/01/08 03:42:16;;;;;;;12.13;6.68;;;3.60;99.90;;;;;;5077306;28;20213;-82
2021/01/08 03:44:43;;;;;;;12.05;6.82;;;3.30;99.90;;;;;;5077964;28;20210;-80
2021/01/08 03:47:10;;;;;;;8.48;5.60;;;3.40;99.90;;;;;;5076501;28;20206;-81
2021/01/08 03:49:38;;;;;;;11.25;6.57;;;3.40;99.90;;;;;;5073449;28;20205;-81
2021/01/08 03:52:06;;;;;;;12.77;7.50;;;3.40;99.90;;;;;;5073777;28;20248;-79
2021/01/08 03:54:33;;;;;;;9.85;6.20;;;3.30;99.90;;;;;;5074632;28;20201;-81
2021/01/08 03:56:59;;;;;;;10.77;6.00;;;3.30;99.90;;;;;;5073342;28;20244;-83
2021/01/08 03:59:26;;;;;;;12.35;6.78;;;3.50;99.90;;;;;;5072323;28;20276;-82
2021/01/08 04:01:53;;;;;;;10.07;5.93;;;3.40;99.90;;;;;;5073085;28;20271;-82
2021/01/08 04:04:19;;;;;;;12.98;6.43;;;3.50;99.90;;;;;;5072732;28;20198;-83
2021/01/08 04:06:47;;;;;;;11.20;6.57;;;3.60;99.90;;;;;;5073478;28;20682;-82
2021/01/08 04:09:13;;;;;;;10.45;6.22;;;3.40;99.90;;;;;;5071352;28;20271;-82
2021/01/08 04:11:40;;;;;;;11.40;6.60;;;3.20;99.90;;;;;;5071953;28;20246;-82
2021/01/08 04:14:06;;;;;;;9.93;6.20;;;3.50;99.90;;;;;;5073946;28;20210;-82
2021/01/08 04:16:34;;;;;;;11.52;5.93;;;3.30;99.90;;;;;;5073255;28;20225;-83
2021/01/08 04:19:01;;;;;;;9.63;5.63;;;3.50;99.90;;;;;;5073635;28;20205;-82
2021/01/08 04:21:28;;;;;;;10.30;6.10;;;3.40;99.90;;;;;;5071153;28;20241;-82
2021/01/08 04:23:55;;;;;;;10.85;6.75;;;3.40;99.90;;;;;;5072642;28;20221;-83
2021/01/08 04:26:22;;;;;;;12.70;5.93;;;3.20;99.90;;;;;;5072926;28;20237;-80
2021/01/08 04:28:48;;;;;;;9.90;5.93;;;3.30;99.90;;;;;;5074592;28;20206;-82
2021/01/08 04:31:15;;;;;;;13.02;7.03;;;3.40;99.90;;;;;;5076763;28;20885;-80
2021/01/08 04:33:43;;;;;;;9.75;5.70;;;3.10;99.90;;;;;;5075297;28;20217;-82
2021/01/08 04:36:10;;;;;;;9.70;6.70;;;3.10;99.90;;;;;;5072274;28;20225;-83
2021/01/08 04:38:37;;;;;;;11.27;6.45;;;3.20;99.90;;;;;;5072203;28;20213;-82
2021/01/08 04:41:05;;;;;;;10.32;6.50;;;3.30;99.90;;;;;;5071325;28;20230;-83
2021/01/08 04:43:32;;;;;;;12.23;6.60;;;3.30;99.90;;;;;;5072973;28;20198;-83
2021/01/08 04:46:04;;;;;;;11.25;7.40;;;3.30;99.90;;;;;;5071499;28;20202;-81
2021/01/08 04:48:31;;;;;;;11.95;6.85;;;3.40;99.90;;;;;;5070399;28;20637;-81
2021/01/08 04:51:02;;;;;;;10.50;6.07;;;3.50;99.90;;;;;;5071913;28;20638;-82
2021/01/08 04:53:30;;;;;;;11.32;6.30;;;3.60;99.90;;;;;;5072739;28;20196;-83
2021/01/08 04:56:01;;;;;;;12.25;7.30;;;3.50;99.90;;;;;;5072741;28;20234;-83
2021/01/08 04:58:31;;;;;;;11.50;7.38;;;3.30;99.90;;;;;;5072230;28;20205;-83
2021/01/08 05:00:58;;;;;;;10.93;6.75;;;3.40;99.90;;;;;;5072883;28;20317;-82
2021/01/08 05:03:25;;;;;;;9.73;6.30;;;3.40;99.90;;;;;;5076082;28;20309;-83
2021/01/08 05:05:51;;;;;;;10.82;6.65;;;3.40;99.90;;;;;;5076077;28;20204;-83
2021/01/08 05:08:18;;;;;;;11.75;6.97;;;3.30;99.90;;;;;;5075709;28;20255;-82
2021/01/08 05:10:45;;;;;;;10.40;6.30;;;3.30;99.90;;;;;;5074470;28;20312;-83
2021/01/08 05:13:12;;;;;;;10.63;6.45;;;3.20;99.90;;;;;;5075021;28;20292;-82
2021/01/08 05:15:40;;;;;;;9.85;6.28;;;3.30;99.90;;;;;;5080603;28;20210;-82
2021/01/08 05:18:06;;;;;;;10.55;6.40;;;3.10;99.90;;;;;;5080952;28;20374;-82
2021/01/08 05:20:33;;;;;;;9.00;5.28;;;3.10;99.90;;;;;;5075049;28;20252;-82
2021/01/08 05:23:00;;;;;;;11.80;5.70;;;3.00;99.90;;;;;;5074892;28;20201;-82
2021/01/08 05:25:28;;;;;;;10.60;5.85;;;3.30;99.90;;;;;;5074780;28;20217;-82
2021/01/08 05:27:55;;;;;;;10.48;6.55;;;3.20;99.90;;;;;;5077373;28;20199;-81
2021/01/08 05:30:24;;;;;;;8.65;4.78;;;3.30;99.90;;;;;;5079340;28;20225;-81
2021/01/08 05:32:58;;;;;;;9.90;6.00;;;3.20;99.90;;;;;;5078057;28;20206;-81
2021/01/08 05:35:25;;;;;;;11.13;6.45;;;3.50;99.90;;;;;;5079907;28;20229;-81
2021/01/08 05:37:54;;;;;;;12.52;6.07;;;3.50;99.90;;;;;;5078162;28;20289;-82
2021/01/08 05:40:27;;;;;;;10.10;5.90;;;3.30;99.90;;;;;;5078292;28;20807;-81
2021/01/08 05:42:55;;;;;;;9.50;6.20;;;3.30;99.90;;;;;;5078749;28;20220;-83
2021/01/08 05:45:22;;;;;;;9.20;5.50;;;3.30;99.90;;;;;;5077994;28;20214;-82
2021/01/08 05:47:50;;;;;;;9.70;5.70;;;3.30;99.90;;;;;;5078466;28;20656;-82
2021/01/08 05:50:20;;;;;;;11.52;6.00;;;3.50;99.90;;;;;;5078353;28;20229;-82
2021/01/08 05:52:50;;;;;;;10.15;6.10;;;3.60;99.90;;;;;;5079072;28;20239;-81
2021/01/08 05:55:17;;;;;;;10.30;6.45;;;3.30;99.90;;;;;;5078239;28;20277;-82
2021/01/08 05:57:44;;;;;;;8.98;5.57;;;3.40;99.90;;;;;;5079920;28;20202;-82
2021/01/08 06:00:11;;;;;;;9.93;5.63;;;3.40;99.90;;;;;;5080728;28;20206;-83
2021/01/08 06:02:39;;;;;;;9.00;5.18;;;3.20;99.90;;;;;;5083119;28;20229;-82
2021/01/08 06:05:10;;;;;;;10.15;5.50;;;3.50;99.90;;;;;;5079846;28;20202;-83
2021/01/08 06:07:38;;;;;;;12.63;5.85;;;3.30;99.90;;;;;;5076505;28;20198;-82
2021/01/08 06:10:06;;;;;;;10.95;5.45;;;3.40;99.90;;;;;;5073674;28;20206;-81
2021/01/08 06:12:37;;;;;;;8.98;5.38;;;3.30;99.90;;;;;;5054056;28;20304;-82
2021/01/08 06:15:07;;;;;;;9.70;5.40;;;3.20;99.90;;;;;;5054093;28;20286;-83
2021/01/08 06:17:34;;;;;;;7.90;4.80;;;3.20;99.90;;;;;;5064736;28;20255;-82
2021/01/08 06:20:03;;;;;;;7.28;4.75;;;3.30;99.90;;;;;;5053226;28;20209;-81
2021/01/08 06:22:37;;;;;;;8.77;4.68;;;3.30;99.90;;;;;;5073217;28;20209;-81
2021/01/08 06:25:06;;;;;;;8.75;4.60;;;3.20;99.90;;;;;;5073479;28;20556;-80
2021/01/08 06:27:34;;;;;;;9.43;5.50;;;3.30;99.90;;;;;;5073417;28;20645;-82
2021/01/08 06:30:04;;;;;;;9.65;5.50;;;3.50;99.90;;;;;;5072388;28;20216;-83
2021/01/08 06:32:31;;;;;;;9.45;5.32;;;3.50;99.90;;;;;;5074310;28;20201;-82
2021/01/08 06:35:05;;;;;;;8.68;5.50;;;3.40;99.90;;;;;;5074558;28;20210;-82
2021/01/08 06:37:39;;;;;;;8.50;4.70;;;3.50;99.90;;;;;;5075756;28;20257;-81
2021/01/08 06:40:10;;;;;;;9.10;5.03;;;3.60;99.90;;;;;;5077035;28;20594;-80
2021/01/08 06:42:47;;;;;;;7.35;4.00;;;3.60;99.90;;;;;;5077268;28;20201;-81
2021/01/08 06:45:16;;;;;;;7.78;5.20;;;3.50;99.90;;;;;;5053491;28;20639;-81
2021/01/08 06:47:47;;;;;;;10.20;5.45;;;3.70;99.90;;;;;;5072434;28;20734;-83
2021/01/08 06:50:17;;;;;;;8.77;5.30;;;3.50;99.90;;;;;;5072934;28;20351;-82
2021/01/08 06:52:46;;;;;;;6.60;4.00;;;3.70;99.90;;;;;;5073304;28;20593;-81
2021/01/08 06:55:18;;;;;;;9.15;5.35;;;3.70;99.90;;;;;;5072585;28;20261;-83
2021/01/08 06:57:49;;;;;;;7.35;4.75;;;3.60;99.90;;;;;;5073625;28;20689;-81
2021/01/08 07:00:21;;;;;;;7.97;5.22;;;3.80;99.90;;;;;;5077639;28;20281;-81
2021/01/08 07:02:55;;;;;;;8.52;5.28;;;3.70;99.90;;;;;;5079843;28;20225;-81
2021/01/08 07:05:22;;;;;;;9.68;5.88;;;3.50;99.90;;;;;;5075174;28;20214;-82
2021/01/08 07:07:50;;;;;;;9.30;4.90;;;3.80;99.90;;;;;;5084078;28;20213;-81
2021/01/08 07:10:17;;;;;;;8.38;5.43;;;3.60;99.90;;;;;;5082665;28;20229;-81
2021/01/08 07:12:44;;;;;;;9.60;4.88;;;3.70;99.90;;;;;;5074858;28;20667;-83
2021/01/08 07:15:12;;;;;;;8.40;5.45;;;3.60;99.90;;;;;;5075472;28;20225;-82
2021/01/08 07:17:39;;;;;;;11.95;5.70;;;3.50;99.90;;;;;;5074337;28;20232;-81
2021/01/08 07:20:08;;;;;;;10.10;4.90;;;3.50;99.90;;;;;;5073913;28;20206;-82
2021/01/08 07:22:38;;;;;;;6.97;4.32;;;3.50;99.90;;;;;;5074861;28;20201;-83
2021/01/08 07:25:11;;;;;;;9.57;5.45;;;3.80;99.90;;;;;;5082279;28;20207;-82
2021/01/08 07:27:40;;;;;;;9.60;5.25;;;3.70;99.90;;;;;;5078735;28;20194;-82
2021/01/08 07:30:08;;;;;;;7.78;4.78;;;3.50;99.90;;;;;;5082477;28;20212;-82
2021/01/08 07:32:36;;;;;;;9.63;5.70;;;3.60;99.90;;;;;;5092294;28;20210;-81
2021/01/08 07:35:23;;;;;;;9.30;5.70;;;3.70;99.90;;;;;;5087410;28;20210;-83
2021/01/08 07:38:01;;;;;;;7.68;4.70;;;3.80;99.90;;;;;;5077142;28;20213;-82
2021/01/08 07:40:31;;;;;;;12.93;6.60;;;3.60;99.90;;;;;;5076619;28;20240;-83
2021/01/08 07:42:59;;;;;;;8.43;5.20;;;3.80;99.90;;;;;;5076449;28;20263;-82
2021/01/08 07:45:47;;;;;;;9.70;5.53;;;3.70;99.90;;;;;;5058203;28;20202;-83
2021/01/08 07:48:17;;;;;;;8.43;5.47;;;3.50;99.90;;;;;;5073641;28;20268;-83
2021/01/08 07:50:56;;;;;;;8.65;5.13;;;3.60;99.90;;;;;;5077288;28;20222;-83
2021/01/08 07:53:48;;;;;;;9.70;5.47;;;3.60;99.90;;;;;;5071579;28;20676;-82
2021/01/08 07:56:17;;;;;;;10.35;4.70;;;3.80;99.90;;;;;;5078148;28;20232;-81
2021/01/08 07:58:56;;;;;;;7.72;5.70;;;3.80;99.90;;;;;;5084905;28;20223;-79
2021/01/08 08:01:23;;;;;;;7.55;4.93;;;3.80;99.90;;;;;;5085215;28;20227;-81
2021/01/08 08:03:58;;;;;;;9.45;5.05;;;3.60;99.90;;;;;;5082828;28;20202;-80
2021/01/08 08:06:25;;;;;;;10.73;6.15;;;3.90;99.90;;;;;;5087298;28;20201;-82
2021/01/08 08:08:53;;;;;;;10.68;5.60;;;4.00;99.90;;;;;;5076703;28;20263;-83
2021/01/08 08:11:26;;;;;;;8.48;5.18;;;3.80;99.90;;;;;;5076891;28;20365;-83
2021/01/08 08:13:53;;;;;;;13.40;5.50;;;3.80;99.90;;;;;;5077182;28;20232;-82
2021/01/08 08:16:31;;;;;;;8.65;5.13;;;3.70;99.90;;;;;;5076008;28;20218;-80
2021/01/08 08:18:57;;;;;;;9.07;4.97;;;3.90;99.90;;;;;;5072290;28;20632;-79
2021/01/08 08:21:24;;;;;;;7.20;4.50;;;3.80;99.90;;;;;;5076319;28;20283;-83
2021/01/08 08:23:54;;;;;;;9.50;5.38;;;3.90;99.90;;;;;;5075362;28;20202;-83
2021/01/08 08:26:23;;;;;;;7.07;4.40;;;3.80;99.90;;;;;;5076425;28;20210;-83
2021/01/08 08:29:00;;;;;;;10.88;4.88;;;3.80;99.90;;;;;;5074625;28;20293;-82
2021/01/08 08:31:29;;;;;;;8.68;4.70;;;3.60;99.90;;;;;;5076801;28;20248;-83
2021/01/08 08:33:55;;;;;;;6.18;3.80;;;3.90;99.90;;;;;;5076763;28;20640;-81
2021/01/08 08:36:25;;;;;;;7.18;3.83;;;3.70;99.90;;;;;;5077383;28;20226;-81
2021/01/08 08:39:03;;;;;;;8.20;4.82;;;4.00;99.90;;;;;;5072563;28;20210;-83
2021/01/08 08:41:31;;;;;;;7.70;4.43;;;3.90;99.90;;;;;;5069589;28;20292;-82
2021/01/08 08:44:03;;;;;;;8.52;5.38;;;3.80;99.90;;;;;;5075660;28;20194;-82
2021/01/08 08:46:43;;;;;;;9.07;5.43;;;3.80;99.90;;;;;;5069782;28;20808;-80
2021/01/08 08:49:11;;;;;;;9.90;6.72;;;3.90;99.90;;;;;;5055279;28;20267;-81
2021/01/08 08:51:41;;;;;;;13.15;7.38;;;4.20;99.90;;;;;;5060536;28;20304;-81
2021/01/08 08:54:08;;;;;;;10.98;4.18;;;3.80;99.90;;;;;;5076521;28;20210;-82
2021/01/08 08:56:38;;;;;;;7.88;4.28;;;4.00;99.90;;;;;;5075470;28;20245;-83
2021/01/08 08:59:05;;;;;;;6.80;4.28;;;3.90;99.90;;;;;;5083825;28;20198;-81
2021/01/08 09:01:39;;;;;;;7.50;4.25;;;3.90;99.90;;;;;;5079285;28;20233;-82
2021/01/08 09:04:06;;;;;;;7.70;4.90;;;3.90;99.90;;;;;;5075320;28;20243;-83
2021/01/08 09:06:36;;;;;;;8.20;4.95;;;3.80;99.90;;;;;;5081524;28;20224;-82
2021/01/08 09:09:19;;;;;;;8.57;4.80;;;3.80;99.90;;;;;;5077556;28;20212;-83
2021/01/08 09:12:01;;;;;;;7.97;4.40;;;3.90;99.90;;;;;;5066351;28;20290;-79
2021/01/08 09:14:32;;;;;;;8.18;4.95;;;3.90;99.90;;;;;;5064289;28;20241;-80
2021/01/08 09:17:04;;;;;;;6.93;3.65;;;3.90;99.90;;;;;;5075459;28;20218;-83
2021/01/08 09:19:39;;;;;;;6.35;3.75;;;4.20;99.90;;;;;;5081523;28;20244;-83
2021/01/08 09:22:07;;;;;;;7.80;4.35;;;4.40;99.90;;;;;;5087431;28;20237;-81
2021/01/08 09:24:37;;;;;;;7.68;5.03;;;4.40;99.90;;;;;;5079172;28;20206;-82
2021/01/08 09:27:07;;;;;;;8.48;3.72;;;4.00;99.90;;;;;;5076569;28;20243;-83
2021/01/08 09:29:36;;;;;;;8.13;4.07;;;4.30;99.90;;;;;;5079024;28;20206;-82
2021/01/08 09:32:04;;;;;;;7.60;3.90;;;4.30;99.90;;;;;;5077274;28;20229;-82
2021/01/08 09:34:31;;;;;;;6.85;4.07;;;4.10;99.90;;;;;;5076751;28;20214;-81
2021/01/08 09:36:59;;;;;;;6.38;4.00;;;4.10;99.90;;;;;;5074937;28;20225;-82
2021/01/08 09:39:29;;;;;;;6.50;3.40;;;4.30;99.90;;;;;;5075775;28;20213;-82
2021/01/08 09:41:57;;;;;;;6.95;3.70;;;4.30;99.90;;;;;;5075065;28;20234;-83
2021/01/08 09:44:32;;;;;;;6.70;3.10;;;4.20;99.90;;;;;;5074159;28;20210;-81
2021/01/08 09:47:00;;;;;;;5.63;3.13;;;4.40;99.90;;;;;;5077760;28;20202;-82
2021/01/08 09:49:38;;;;;;;4.50;2.75;;;4.40;99.90;;;;;;5083146;28;20227;-81
2021/01/08 09:52:05;;;;;;;6.85;3.17;;;4.40;99.90;;;;;;5075823;28;20717;-80
2021/01/08 09:54:46;;;;;;;6.10;2.95;;;4.30;99.90;;;;;;5077085;28;20210;-83
2021/01/08 09:57:25;;;;;;;4.90;2.70;;;4.30;99.90;;;;;;5080106;28;20232;-84
2021/01/08 09:59:57;;;;;;;5.40;2.75;;;4.70;99.90;;;;;;5083117;28;20265;-83
2021/01/08 10:02:36;;;;;;;5.15;3.00;;;4.30;99.90;;;;;;5082491;28;20198;-84
2021/01/08 10:05:03;;;;;;;5.60;2.72;;;4.50;99.90;;;;;;5079717;28;21631;-83
2021/01/08 10:07:41;;;;;;;5.15;3.15;;;4.50;99.90;;;;;;5078358;28;20197;-83
2021/01/08 10:10:09;;;;;;;7.28;2.92;;;4.30;99.90;;;;;;5078230;28;20209;-83
2021/01/08 10:12:44;;;;;;;4.90;2.30;;;4.60;99.90;;;;;;5077800;28;20288;-84
2021/01/08 10:15:14;;;;;;;5.90;2.90;;;4.50;99.90;;;;;;5081032;28;20205;-83
2021/01/08 10:17:48;;;;;;;5.93;3.00;;;4.30;99.90;;;;;;5080593;28;20685;-82
2021/01/08 10:20:16;;;;;;;5.40;2.85;;;4.50;99.90;;;;;;5077629;28;20222;-82
2021/01/08 10:22:48;;;;;;;5.35;2.88;;;4.60;99.90;;;;;;5076773;28;20198;-83
2021/01/08 10:25:28;;;;;;;4.57;2.78;;;4.70;99.90;;;;;;5076114;28;20288;-83
2021/01/08 10:28:08;;;;;;;6.85;3.45;;;4.70;99.90;;;;;;5076472;28;20189;-83
2021/01/08 10:30:36;;;;;;;11.82;5.85;;;4.70;99.90;;;;;;5084260;28;20228;-84
2021/01/08 10:33:03;;;;;;;5.95;3.15;;;4.90;99.90;;;;;;5083400;28;20213;-82
2021/01/08 10:35:29;;;;;;;5.15;2.33;;;4.80;99.90;;;;;;5089231;28;20204;-83
2021/01/08 10:37:56;;;;;;;5.47;2.78;;;4.60;99.90;;;;;;5085905;28;20222;-84
2021/01/08 10:40:23;;;;;;;8.57;3.83;;;4.70;99.90;;;;;;5080503;28;20236;-82
2021/01/08 10:42:51;;;;;;;5.05;2.47;;;4.90;99.90;;;;;;5077902;28;20216;-82
2021/01/08 10:45:18;;;;;;;5.10;3.17;;;4.70;99.90;;;;;;5075018;28;20283;-83
2021/01/08 10:47:45;;;;;;;5.50;3.00;;;4.70;99.90;;;;;;5076302;28;20635;-84
2021/01/08 10:50:13;;;;;;;10.85;5.55;;;4.80;99.90;;;;;;5075869;28;20205;-82
2021/01/08 10:52:40;;;;;;;6.80;3.83;;;4.70;99.90;;;;;;5074694;28;20205;-82
2021/01/08 10:55:10;;;;;;;6.00;3.22;;;4.80;99.90;;;;;;5073648;28;20584;-82
2021/01/08 10:57:37;;;;;;;6.50;3.33;;;4.90;99.90;;;;;;5074035;28;20305;-82
2021/01/08 11:00:06;;;;;;;5.68;3.00;;;4.80;99.90;;;;;;5073277;28;20204;-81
2021/01/08 11:02:33;;;;;;;6.40;3.35;;;5.00;99.90;;;;;;5072777;28;20197;-82
2021/01/08 11:05:01;;;;;;;5.32;3.00;;;5.20;99.90;;;;;;5073106;28;20198;-82
2021/01/08 11:07:27;;;;;;;6.07;3.97;;;5.00;99.90;;;;;;5072281;28;20202;-82
2021/01/08 11:09:54;;;;;;;4.70;3.00;;;5.20;99.90;;;;;;5072339;28;20242;-81
2021/01/08 11:12:20;;;;;;;6.10;3.50;;;4.90;99.90;;;;;;5070057;28;20236;-79
2021/01/08 11:14:47;;;;;;;7.13;3.88;;;5.20;99.90;;;;;;5069097;28;20209;-79
2021/01/08 11:17:13;;;;;;;5.05;2.90;;;5.20;99.90;;;;;;5066610;28;20222;-79
2021/01/08 11:19:40;;;;;;;7.88;4.20;;;5.10;99.90;;;;;;5078554;28;20197;-78
2021/01/08 11:22:08;;;;;;;6.22;3.38;;;5.20;99.90;;;;;;5080324;28;20350;-79
2021/01/08 11:24:37;;;;;;;5.85;3.70;;;5.30;99.90;;;;;;5074428;28;20545;-80
2021/01/08 11:27:04;;;;;;;10.18;5.07;;;5.40;99.90;;;;;;5060381;28;20293;-77
2021/01/08 11:29:31;;;;;;;8.00;3.85;;;5.00;99.90;;;;;;5075175;28;20675;-79
2021/01/08 11:31:58;;;;;;;6.28;3.33;;;5.10;99.90;;;;;;5073542;28;20272;-78
2021/01/08 11:34:25;;;;;;;6.53;3.38;;;5.30;99.90;;;;;;5070374;28;20202;-78
2021/01/08 11:36:55;;;;;;;4.97;2.85;;;5.30;99.90;;;;;;5072571;28;20312;-79
2021/01/08 11:39:22;;;;;;;5.78;3.80;;;5.30;99.90;;;;;;5074404;28;20336;-79
2021/01/08 11:41:49;;;;;;;5.88;3.10;;;5.50;99.90;;;;;;5073462;28;20222;-79
2021/01/08 11:46:43;;;;;;;4.80;2.50;;;5.10;99.90;;;;;;5044723;28;20223;-82
2021/01/08 11:49:11;;;;;;;6.47;3.28;;;5.00;99.90;;;;;;5058683;28;20213;-83
2021/01/08 11:51:37;;;;;;;4.13;1.83;;;5.00;99.90;;;;;;5064737;28;20202;-81
2021/01/08 11:54:04;;;;;;;6.97;3.00;;;5.00;99.90;;;;;;5064408;28;20279;-82
2021/01/08 11:56:32;;;;;;;7.68;3.85;;;4.90;99.90;;;;;;5061047;28;20237;-82
2021/01/08 11:58:58;;;;;;;6.15;3.25;;;4.90;99.90;;;;;;5059769;28;20206;-86
2021/01/08 12:01:28;;;;;;;6.85;3.50;;;4.80;99.90;;;;;;5069938;28;20202;-87
2021/01/08 12:03:56;;;;;;;5.53;3.22;;;5.00;99.90;;;;;;5058718;28;20210;-86
2021/01/08 12:06:27;;;;;;;5.00;3.10;;;4.90;99.90;;;;;;5061216;28;20222;-84
2021/01/08 12:08:54;;;;;;;4.53;1.23;;;4.80;99.90;;;;;;5051489;28;20256;-87
2021/01/08 12:11:20;;;;;;;5.63;3.17;;;5.20;99.90;;;;;;5056916;28;20460;-81
2021/01/08 12:13:48;;;;;;;5.72;2.50;;;5.00;99.90;;;;;;5046457;28;20210;-84
2021/01/08 12:16:15;;;;;;;5.80;3.15;;;5.00;99.90;;;;;;5033751;28;20238;-78
2021/01/08 12:18:41;;;;;;;5.30;3.33;;;4.80;99.90;;;;;;5049537;28;20225;-78
2021/01/08 12:21:08;;;;;;;3.30;1.60;;;4.70;99.90;;;;;;5057204;28;20226;-79
2021/01/08 12:23:35;;;;;;;8.85;4.07;;;4.50;99.90;;;;;;5070328;28;20206;-83
2021/01/08 12:26:01;;;;;;;7.28;3.70;;;4.50;99.90;;;;;;5068211;28;20214;-79
2021/01/08 12:28:28;;;;;;;6.38;3.60;;;4.70;99.90;;;;;;5064731;28;20211;-80
2021/01/08 12:30:55;;;;;;;4.72;2.50;;;4.70;99.90;;;;;;5057279;28;20691;-79
2021/01/08 12:33:22;;;;;;;8.00;4.15;;;4.70;99.90;;;;;;5058789;28;20202;-85
2021/01/08 12:35:48;;;;;;;9.73;4.10;;;5.00;99.90;;;;;;5057219;28;20222;-89
2021/01/08 12:38:16;;;;;;;9.15;4.35;;;4.70;99.90;;;;;;5055212;28;20203;-88
2021/01/08 12:40:42;;;;;;;7.93;4.20;;;4.80;99.90;;;;;;5048021;28;20580;-84
2021/01/08 12:43:09;;;;;;;7.78;4.07;;;4.80;99.90;;;;;;5053720;28;20210;-84
2021/01/08 12:45:35;;;;;;;8.02;4.38;;;4.80;99.90;;;;;;5056155;28;20246;-85
2021/01/08 12:48:06;;;;;;;6.38;3.72;;;4.80;99.90;;;;;;5057076;28;20562;-83
2021/01/08 12:50:32;;;;;;;10.05;4.50;;;4.80;99.90;;;;;;5057373;28;20237;-84
2021/01/08 12:53:00;;;;;;;7.90;4.07;;;4.80;99.90;;;;;;5057387;28;20211;-85
2021/01/08 12:55:26;;;;;;;8.82;4.40;;;5.10;99.90;;;;;;5057655;28;20265;-85
2021/01/08 12:57:53;;;;;;;8.55;4.20;;;5.10;99.90;;;;;;5056625;28;20227;-84
2021/01/08 13:00:20;;;;;;;11.77;4.70;;;5.00;99.90;;;;;;5057019;28;20213;-82
2021/01/08 13:02:47;;;;;;;7.80;4.45;;;5.00;99.90;;;;;;5057957;28;20203;-82